Caputa, South Dakota
Current Conditions -  °F | °C
As of 5:52 AM on Sunday 21 Dec 2014 (Local Time) from KRAP Reporting Station
Clear Clear  
Wind Chill: 23°   Ceiling: Unl
Heat Index: 23°   Visibility: 10mi
Dew Point: 19°   Wind: 0mph
Humidity: 85%   Direction: NA
Pressure: 29.56"   Gusts: NA
Location:  44°N, 102.98°W
Report Text: KRAP 211252Z AUTO 00000KT 10SM CLR M05/M07 A2956 RMK AO2 SLP042 T10501072
Loading
Personal Weather Stations






























Interactive Weather Map New forecast layout! Learn more

10-Day Weather Forecast

Advertisements
Track Severe Weather on mobile